world map with TSN marked

TSN - Airport

This information may not be accurate or current and is not valid for navigation or flight planning. No warranty of fitness for any purpose is made or implied.

flag of China

Donate via PayPal

Additional information is available on the NEW Great Circle Mapper

Location
City:  Tianjin, Tianjin, China
Name:Binhai International Airport
ICAO / IATA:ZBTJ / TSN

Details
Type:Airport (Aerodrome, Airfield)
Use:Public/Civil
Latitude:39°07'N (39.123)
Longitude:117°21'E (117.345)
Elevation:13 ft (4 m)
Runways:2
Longest:11811 × 164 ft (3600 × 50 m)

Time
Timezone:UTC+8 (DST+10)
Local Time:

Weather
METAR:ZBTJ  041400Z VRB01MPS 2000 BR NSC M01/M05 Q1018 NOSIG
TAF:ZBTJ  (expired)

Related Locations
Nearby:
Farthest:BHI: 12396 mi / 19950 km
Bahía Blanca [Comandante Espora Airport], B, AR

Find:

   beyond  
but within

Other Information
Maps:
Sources:

  

Airport Diagram

Airport diagram for TSN

Airport diagram PDF

 


Great Circle Mapper   Great Circle Mapper
Great Circle Mapper FAQ   Great Circle Mapper FAQ
  Karl's Home Page
KLS²   KLS² Home
   GC on Facebook
Airlines of the World   Airlines of the World
Donate via PayPal


Copyright © 2004-2020, Karl L. Swartz. All rights reserved.
All trademarks mentioned herein belong to their respective owners.

Please see credits for attribution and copyright information.

Karl Swartz <karl@kls2.com>
  Powered by FreeBSD
Valid HTML 4.01!
Labeled with ICRA
hCard Microformat
Geo Microformat